createdAt,value
2022-07-29T00:00:40.885Z,66.41
2022-07-29T00:01:40.884Z,66.41
2022-07-29T00:02:40.907Z,66.61
2022-07-29T00:03:40.914Z,66.61
2022-07-29T00:04:40.926Z,67.12
2022-07-29T00:05:40.849Z,67.63
2022-07-29T00:06:40.816Z,67.72
2022-07-29T00:07:40.831Z,67.63
2022-07-29T00:08:40.797Z,67.43
2022-07-29T00:09:44.913Z,66.41
2022-07-29T00:10:41.774Z,67.52
2022-07-29T00:11:40.778Z,67.43
2022-07-29T00:12:40.746Z,67.43
2022-07-29T00:13:40.754Z,67.12
2022-07-29T00:14:40.736Z,66.95
2022-07-29T00:15:40.877Z,67.05
2022-07-29T00:16:40.756Z,67.25
2022-07-29T00:17:40.718Z,67.66
2022-07-29T00:18:41.407Z,67.35
2022-07-29T00:19:44.943Z,67.25
2022-07-29T00:20:40.668Z,68.06
2022-07-29T00:21:40.672Z,68.06
2022-07-29T00:22:40.643Z,67.79
2022-07-29T00:23:40.648Z,67.59
2022-07-29T00:24:40.617Z,67.79
2022-07-29T00:25:40.617Z,68.50
2022-07-29T00:26:40.597Z,69.10
2022-07-29T00:27:40.605Z,68.80
2022-07-29T00:28:40.578Z,69.01
2022-07-29T00:29:40.577Z,69.51
2022-07-29T00:30:40.559Z,69.10
2022-07-29T00:31:40.628Z,69.41
2022-07-29T00:32:40.533Z,69.71
2022-07-29T00:33:40.536Z,69.01
2022-07-29T00:34:40.507Z,64.22
2022-07-29T00:35:40.507Z,65.23
2022-07-29T00:36:40.492Z,66.04
2022-07-29T00:37:40.486Z,61.69
2022-07-29T00:38:40.482Z,64.22
2022-07-29T00:39:40.476Z,62.37
2022-07-29T00:40:40.442Z,63.48
2022-07-29T00:41:40.447Z,64.59
2022-07-29T00:42:40.408Z,65.40
2022-07-29T00:43:40.419Z,65.70
2022-07-29T00:44:40.408Z,65.91
2022-07-29T00:45:40.399Z,64.49
2022-07-29T00:46:40.415Z,65.10
2022-07-29T00:47:40.376Z,65.70
2022-07-29T00:48:40.376Z,65.61
2022-07-29T00:49:40.346Z,64.49
2022-07-29T00:50:40.477Z,62.77
2022-07-29T00:51:40.339Z,63.25
2022-07-29T00:52:40.300Z,63.05
2022-07-29T00:53:40.302Z,62.04
2022-07-29T00:54:44.113Z,61.83
2022-07-29T00:55:40.279Z,61.94
2022-07-29T00:56:40.258Z,61.53
2022-07-29T00:57:40.260Z,62.24
2022-07-29T00:58:41.157Z,61.63
2022-07-29T00:59:40.493Z,62.11
2022-07-29T01:00:40.251Z,61.91
2022-07-29T01:01:40.250Z,61.00
2022-07-29T01:02:40.188Z,60.60
2022-07-29T01:03:40.487Z,60.60
2022-07-29T01:04:40.163Z,60.39
2022-07-29T01:05:50.106Z,60.29
2022-07-29T01:06:41.138Z,57.87
2022-07-29T01:07:40.151Z,58.47
2022-07-29T01:08:40.117Z,58.87
2022-07-29T01:09:45.697Z,58.67
2022-07-29T01:10:41.096Z,57.94
2022-07-29T01:11:40.096Z,56.02
2022-07-29T01:12:40.068Z,57.14
2022-07-29T01:13:40.255Z,56.93
2022-07-29T01:14:40.047Z,57.34
2022-07-29T01:15:40.060Z,57.74
2022-07-29T01:16:41.054Z,58.14
2022-07-29T01:17:40.034Z,57.54
2022-07-29T01:18:41.008Z,57.23
2022-07-29T01:19:40.080Z,56.32
2022-07-29T01:20:40.000Z,57.14
2022-07-29T01:21:40.018Z,56.83
2022-07-29T01:22:39.972Z,56.83
2022-07-29T01:23:39.966Z,57.23
2022-07-29T01:24:39.938Z,57.14
2022-07-29T01:25:39.938Z,57.23
2022-07-29T01:26:39.920Z,56.32
2022-07-29T01:27:39.919Z,56.43
2022-07-29T01:28:39.888Z,56.63
2022-07-29T01:29:40.510Z,56.12
2022-07-29T01:30:39.869Z,56.12
2022-07-29T01:31:40.336Z,55.92
2022-07-29T01:32:40.861Z,55.62
2022-07-29T01:33:39.860Z,56.12
2022-07-29T01:34:39.829Z,56.52
2022-07-29T01:35:39.867Z,55.92
2022-07-29T01:36:39.809Z,56.23
2022-07-29T01:37:39.809Z,54.61
2022-07-29T01:38:39.790Z,53.20
2022-07-29T01:39:40.520Z,54.10
2022-07-29T01:40:39.780Z,54.48
2022-07-29T01:41:39.760Z,54.28
2022-07-29T01:42:39.740Z,54.89
2022-07-29T01:43:39.746Z,56.40
2022-07-29T01:44:39.716Z,56.70
2022-07-29T01:45:39.726Z,56.63
2022-07-29T01:46:39.767Z,56.93
2022-07-29T01:47:39.689Z,56.63
2022-07-29T01:48:39.704Z,56.52
2022-07-29T01:49:39.670Z,56.02
2022-07-29T01:50:39.676Z,56.43
2022-07-29T01:51:39.680Z,57.94
2022-07-29T01:52:39.620Z,58.14
2022-07-29T01:53:40.249Z,54.81
2022-07-29T01:54:39.599Z,54.81
2022-07-29T01:55:39.604Z,53.47
2022-07-29T01:56:39.571Z,55.19
2022-07-29T01:57:40.328Z,55.99
2022-07-29T01:58:39.570Z,56.20
2022-07-29T01:59:39.561Z,55.39
2022-07-29T02:00:39.545Z,55.99
2022-07-29T02:01:39.601Z,55.49
2022-07-29T02:02:39.510Z,55.59
2022-07-29T02:03:39.520Z,56.23
2022-07-29T02:04:39.540Z,55.92
2022-07-29T02:05:39.490Z,55.62
2022-07-29T02:06:39.482Z,56.12
2022-07-29T02:07:39.950Z,55.82
2022-07-29T02:08:39.460Z,56.02
2022-07-29T02:09:39.460Z,57.03
2022-07-29T02:10:39.424Z,56.93
2022-07-29T02:11:39.421Z,57.23
2022-07-29T02:12:39.399Z,56.73
2022-07-29T02:13:39.520Z,56.93
2022-07-29T02:14:39.402Z,57.26
2022-07-29T02:15:39.440Z,57.46
2022-07-29T02:16:39.391Z,58.27
2022-07-29T02:17:40.882Z,58.17
2022-07-29T02:18:39.437Z,58.07
2022-07-29T02:19:39.334Z,58.27
2022-07-29T02:20:39.323Z,57.46
2022-07-29T02:21:39.329Z,57.18
2022-07-29T02:22:39.326Z,56.65
2022-07-29T02:23:50.397Z,55.74
2022-07-29T02:24:40.260Z,55.74
2022-07-29T02:25:39.265Z,56.15
2022-07-29T02:26:39.390Z,56.85
2022-07-29T02:27:39.250Z,57.97
2022-07-29T02:28:39.230Z,57.97
2022-07-29T02:29:39.221Z,58.58
2022-07-29T02:30:39.191Z,58.58
2022-07-29T02:31:39.271Z,59.18
2022-07-29T02:32:39.181Z,58.87
2022-07-29T02:33:39.190Z,58.67
2022-07-29T02:34:39.161Z,58.37
2022-07-29T02:35:39.169Z,59.08
2022-07-29T02:36:39.132Z,58.58
2022-07-29T02:37:39.133Z,58.30
2022-07-29T02:38:39.110Z,58.60
2022-07-29T02:39:39.121Z,59.00
2022-07-29T02:40:39.810Z,59.00
2022-07-29T02:41:39.113Z,58.70
2022-07-29T02:42:39.086Z,58.60
2022-07-29T02:43:39.061Z,58.09
2022-07-29T02:44:39.045Z,58.70
2022-07-29T02:45:39.043Z,58.60
2022-07-29T02:46:39.094Z,58.20
2022-07-29T02:47:41.847Z,58.00
2022-07-29T02:48:39.061Z,57.69
2022-07-29T02:49:38.982Z,58.09
2022-07-29T02:50:38.990Z,58.70
2022-07-29T02:51:43.351Z,58.80
2022-07-29T02:52:39.965Z,58.87
2022-07-29T02:53:38.932Z,59.31
2022-07-29T02:54:38.936Z,59.11
2022-07-29T02:55:38.912Z,59.51
2022-07-29T02:56:38.953Z,60.32
2022-07-29T02:57:55.052Z,59.81
2022-07-29T02:58:39.893Z,60.32
2022-07-29T02:59:38.871Z,60.12
2022-07-29T03:00:38.872Z,59.71
2022-07-29T03:01:38.882Z,60.72
2022-07-29T03:02:39.721Z,59.81
2022-07-29T03:03:38.856Z,60.35
2022-07-29T03:04:38.863Z,60.35
2022-07-29T03:05:38.803Z,59.03
2022-07-29T03:06:39.084Z,60.14
2022-07-29T03:07:38.783Z,60.75
2022-07-29T03:08:38.832Z,59.94
2022-07-29T03:09:39.322Z,60.25
2022-07-29T03:10:38.762Z,59.94
2022-07-29T03:11:46.199Z,59.84
2022-07-29T03:12:39.746Z,60.05
2022-07-29T03:13:38.723Z,60.17
2022-07-29T03:14:38.740Z,59.87
2022-07-29T03:15:38.718Z,59.77
2022-07-29T03:16:41.267Z,60.38
2022-07-29T03:17:38.663Z,61.49
2022-07-29T03:18:38.684Z,60.48
2022-07-29T03:19:38.654Z,60.48
2022-07-29T03:20:38.643Z,60.17
2022-07-29T03:21:38.634Z,60.58
2022-07-29T03:22:39.362Z,61.69
2022-07-29T03:23:38.676Z,61.29
2022-07-29T03:24:39.423Z,60.98
2022-07-29T03:25:38.594Z,61.21
2022-07-29T03:26:38.624Z,61.52
2022-07-29T03:27:38.993Z,62.23
2022-07-29T03:28:38.562Z,62.43
2022-07-29T03:29:38.532Z,62.35
2022-07-29T03:30:38.781Z,62.96
2022-07-29T03:31:38.563Z,63.07
2022-07-29T03:32:38.513Z,62.46
2022-07-29T03:33:38.503Z,62.66
2022-07-29T03:34:38.513Z,63.47
2022-07-29T03:35:38.529Z,63.98
2022-07-29T03:36:38.464Z,64.38
2022-07-29T03:37:38.446Z,64.92
2022-07-29T03:38:38.456Z,65.22
2022-07-29T03:39:38.426Z,65.53
2022-07-29T03:40:38.522Z,65.83
2022-07-29T03:41:38.515Z,66.03
2022-07-29T03:42:38.412Z,66.33
2022-07-29T03:43:38.386Z,66.24
2022-07-29T03:44:39.387Z,66.47
2022-07-29T03:45:38.364Z,66.37
2022-07-29T03:46:38.427Z,66.06
2022-07-29T03:47:43.568Z,65.96
2022-07-29T03:48:39.362Z,66.06
2022-07-29T03:49:38.303Z,65.45
2022-07-29T03:50:38.313Z,65.45
2022-07-29T03:51:39.115Z,65.45
2022-07-29T03:52:38.312Z,65.15
2022-07-29T03:53:38.273Z,66.47
2022-07-29T03:54:38.273Z,66.67
2022-07-29T03:55:38.244Z,66.67
2022-07-29T03:56:38.281Z,66.97
2022-07-29T03:57:38.244Z,66.77
2022-07-29T03:58:38.225Z,67.18
2022-07-29T03:59:38.195Z,67.18
2022-07-29T04:00:38.194Z,67.28
2022-07-29T04:01:38.206Z,68.19
2022-07-29T04:02:39.078Z,67.89
2022-07-29T04:03:38.256Z,67.58
2022-07-29T04:04:38.915Z,67.31
2022-07-29T04:05:39.075Z,67.11
2022-07-29T04:06:38.136Z,67.21
2022-07-29T04:07:38.105Z,67.61
2022-07-29T04:08:38.183Z,67.72
2022-07-29T04:09:38.075Z,67.92
2022-07-29T04:10:38.085Z,68.23
2022-07-29T04:11:57.068Z,68.12
2022-07-29T04:12:39.054Z,68.32
2022-07-29T04:13:38.823Z,68.35
2022-07-29T04:14:38.062Z,68.05
2022-07-29T04:15:38.545Z,67.85
2022-07-29T04:16:38.004Z,67.75
2022-07-29T04:17:37.983Z,69.47
2022-07-29T04:18:38.854Z,69.37
2022-07-29T04:19:38.204Z,69.17
2022-07-29T04:20:37.966Z,68.87
2022-07-29T04:21:37.955Z,68.87
2022-07-29T04:22:37.976Z,69.07
2022-07-29T04:23:52.958Z,68.46
2022-07-29T04:24:44.010Z,68.56
2022-07-29T04:25:38.143Z,68.15
2022-07-29T04:26:38.185Z,67.95
2022-07-29T04:27:38.021Z,68.05
2022-07-29T04:28:37.865Z,68.26
2022-07-29T04:29:37.896Z,68.76
2022-07-29T04:30:39.197Z,69.17
2022-07-29T04:31:37.914Z,69.68
2022-07-29T04:32:37.820Z,69.47
2022-07-29T04:33:37.798Z,69.07
2022-07-29T04:34:37.793Z,69.24
2022-07-29T04:35:48.203Z,67.72
2022-07-29T04:36:38.766Z,67.51
2022-07-29T04:37:37.756Z,67.72
2022-07-29T04:38:37.754Z,68.32
2022-07-29T04:39:37.775Z,69.03
2022-07-29T04:40:38.517Z,69.13
2022-07-29T04:41:37.709Z,69.54
2022-07-29T04:42:43.957Z,69.44
2022-07-29T04:43:38.815Z,69.03
2022-07-29T04:44:39.722Z,69.34
2022-07-29T04:45:38.659Z,69.24
2022-07-29T04:46:37.747Z,69.34
2022-07-29T04:47:37.635Z,69.64
2022-07-29T04:48:37.681Z,69.34
2022-07-29T04:49:37.596Z,69.34
2022-07-29T04:50:37.604Z,68.63
2022-07-29T04:51:37.855Z,68.73
2022-07-29T04:52:37.898Z,69.03
2022-07-29T04:53:37.546Z,68.93
2022-07-29T04:54:37.552Z,68.70
2022-07-29T04:55:38.986Z,68.19
2022-07-29T04:56:37.538Z,68.40
2022-07-29T04:57:38.404Z,68.19
2022-07-29T04:58:37.519Z,68.26
2022-07-29T04:59:37.487Z,68.56
2022-07-29T05:00:37.485Z,68.06
2022-07-29T05:01:37.519Z,68.46
2022-07-29T05:02:37.842Z,68.77
2022-07-29T05:03:37.445Z,68.66
2022-07-29T05:04:37.464Z,68.02
2022-07-29T05:05:37.428Z,67.62
2022-07-29T05:06:37.426Z,67.22
2022-07-29T05:07:37.385Z,67.18
2022-07-29T05:08:38.115Z,67.18
2022-07-29T05:09:37.417Z,66.64
2022-07-29T05:10:37.366Z,66.44
2022-07-29T05:11:37.336Z,66.31
2022-07-29T05:12:37.344Z,65.81
2022-07-29T05:13:46.154Z,65.88
2022-07-29T05:14:38.336Z,65.67
2022-07-29T05:15:37.428Z,65.07
2022-07-29T05:16:37.314Z,64.43
2022-07-29T05:17:37.276Z,64.03
2022-07-29T05:18:37.275Z,63.79
2022-07-29T05:19:39.680Z,63.39
2022-07-29T05:20:37.306Z,62.59
2022-07-29T05:21:38.147Z,62.38
2022-07-29T05:22:38.079Z,61.85
2022-07-29T05:23:37.230Z,61.75
2022-07-29T05:24:38.146Z,61.85
2022-07-29T05:25:43.896Z,62.45
2022-07-29T05:26:38.266Z,62.76
2022-07-29T05:27:37.166Z,62.63
2022-07-29T05:28:37.166Z,62.22
2022-07-29T05:29:42.536Z,62.12
2022-07-29T05:30:38.228Z,62.43
2022-07-29T05:31:37.125Z,63.03
2022-07-29T05:32:37.153Z,62.83
2022-07-29T05:33:37.322Z,62.83
2022-07-29T05:34:37.100Z,62.22
2022-07-29T05:35:38.159Z,62.63
2022-07-29T05:36:37.066Z,62.22
2022-07-29T05:37:37.046Z,61.52
2022-07-29T05:38:37.352Z,61.41
2022-07-29T05:39:48.853Z,62.22
2022-07-29T05:40:38.108Z,62.52
2022-07-29T05:41:37.106Z,62.73
2022-07-29T05:42:37.005Z,62.02
2022-07-29T05:43:36.976Z,62.22
2022-07-29T05:44:37.128Z,62.32
2022-07-29T05:45:49.283Z,61.52
2022-07-29T05:46:38.068Z,61.52
2022-07-29T05:47:37.080Z,61.01
2022-07-29T05:48:36.999Z,62.32
2022-07-29T05:49:36.969Z,61.21
2022-07-29T05:50:36.918Z,61.32
2022-07-29T05:51:38.598Z,62.83
2022-07-29T05:52:37.763Z,61.82
2022-07-29T05:53:36.889Z,62.22
2022-07-29T05:54:36.877Z,63.13
2022-07-29T05:55:36.846Z,63.64
2022-07-29T05:56:36.859Z,63.10
2022-07-29T05:57:36.958Z,62.80
2022-07-29T05:58:37.697Z,61.59
2022-07-29T05:59:36.811Z,60.58
2022-07-29T06:00:36.808Z,59.88
2022-07-29T06:01:36.808Z,61.49
2022-07-29T06:02:36.931Z,61.25
2022-07-29T06:03:37.018Z,60.75
2022-07-29T06:04:36.803Z,59.34
2022-07-29T06:05:37.536Z,60.85
2022-07-29T06:06:36.767Z,61.23
2022-07-29T06:07:36.719Z,61.63
2022-07-29T06:08:36.758Z,62.44
2022-07-29T06:09:36.799Z,62.30
2022-07-29T06:10:36.697Z,61.70
2022-07-29T06:11:36.659Z,61.17
2022-07-29T06:12:36.668Z,60.06
2022-07-29T06:13:36.639Z,60.36
2022-07-29T06:14:37.034Z,59.43
2022-07-29T06:15:36.681Z,58.93
2022-07-29T06:16:37.225Z,58.70
2022-07-29T06:17:36.596Z,58.40
2022-07-29T06:18:36.599Z,57.70
2022-07-29T06:19:36.580Z,57.37
2022-07-29T06:20:36.581Z,55.66
2022-07-29T06:21:38.734Z,54.85
2022-07-29T06:22:38.459Z,56.06
2022-07-29T06:23:36.539Z,54.13
2022-07-29T06:24:36.529Z,55.53
2022-07-29T06:25:36.517Z,55.83
2022-07-29T06:26:39.693Z,54.30
2022-07-29T06:27:37.199Z,51.09
2022-07-29T06:28:36.489Z,51.19
2022-07-29T06:29:36.453Z,52.49
2022-07-29T06:30:36.522Z,53.67
2022-07-29T06:31:36.429Z,53.67
2022-07-29T06:32:40.039Z,53.47
2022-07-29T06:33:37.692Z,52.77
2022-07-29T06:34:36.433Z,52.67
2022-07-29T06:35:38.483Z,52.37
2022-07-29T06:36:37.730Z,52.24
2022-07-29T06:37:36.386Z,51.56
2022-07-29T06:38:40.605Z,51.67
2022-07-29T06:39:37.402Z,50.56
2022-07-29T06:40:36.389Z,49.86
2022-07-29T06:41:36.478Z,50.76
2022-07-29T06:42:36.331Z,51.67
2022-07-29T06:43:36.299Z,50.96
2022-07-29T06:44:37.316Z,50.59
2022-07-29T06:45:36.411Z,51.19
2022-07-29T06:46:37.284Z,52.69
2022-07-29T06:47:37.093Z,53.02
2022-07-29T06:48:36.298Z,52.82
2022-07-29T06:49:36.230Z,52.72
2022-07-29T06:50:44.457Z,52.82
2022-07-29T06:51:36.200Z,53.02
2022-07-29T06:52:36.230Z,52.32
2022-07-29T06:53:36.182Z,52.72
2022-07-29T06:54:36.188Z,52.92
2022-07-29T06:55:36.161Z,52.51
2022-07-29T06:56:39.524Z,52.22
2022-07-29T06:57:36.411Z,51.31
2022-07-29T06:58:36.343Z,51.61
2022-07-29T06:59:36.250Z,52.42
2022-07-29T07:00:36.133Z,52.32
2022-07-29T07:01:36.196Z,51.61
2022-07-29T07:02:36.163Z,50.41
2022-07-29T07:03:36.082Z,50.79
2022-07-29T07:04:36.080Z,49.98
2022-07-29T07:05:36.077Z,50.09
2022-07-29T07:06:36.053Z,49.88
2022-07-29T07:07:36.071Z,49.78
2022-07-29T07:08:36.023Z,49.96
2022-07-29T07:09:39.979Z,49.96
2022-07-29T07:10:36.003Z,49.36
2022-07-29T07:11:35.994Z,50.16
2022-07-29T07:12:36.742Z,50.16
2022-07-29T07:13:36.862Z,50.16
2022-07-29T07:14:35.962Z,50.76
2022-07-29T07:15:39.900Z,49.66
2022-07-29T07:16:35.977Z,49.43
2022-07-29T07:17:35.930Z,49.74
2022-07-29T07:18:35.903Z,50.04
2022-07-29T07:19:35.916Z,49.84
2022-07-29T07:20:35.958Z,50.54
2022-07-29T07:21:36.070Z,50.54
2022-07-29T07:22:38.944Z,49.84
2022-07-29T07:23:35.862Z,49.74
2022-07-29T07:24:35.864Z,49.93
2022-07-29T07:25:35.894Z,50.56
2022-07-29T07:26:35.853Z,50.24
2022-07-29T07:27:35.823Z,50.13
2022-07-29T07:28:35.803Z,50.76
2022-07-29T07:29:35.833Z,50.44
2022-07-29T07:30:35.784Z,50.54
2022-07-29T07:31:35.850Z,50.94
2022-07-29T07:32:35.790Z,50.63
2022-07-29T07:33:36.513Z,51.01
2022-07-29T07:34:36.551Z,51.51
2022-07-29T07:35:35.753Z,51.12
2022-07-29T07:36:35.723Z,49.81
2022-07-29T07:37:35.762Z,50.69
2022-07-29T07:38:35.700Z,49.69
2022-07-29T07:39:35.703Z,49.26
2022-07-29T07:40:35.679Z,49.37
2022-07-29T07:41:35.702Z,48.94
2022-07-29T07:42:35.644Z,48.24
2022-07-29T07:43:35.661Z,48.22
2022-07-29T07:44:51.305Z,48.61
2022-07-29T07:45:36.654Z,48.42
2022-07-29T07:46:35.606Z,47.81
2022-07-29T07:47:35.603Z,47.69
2022-07-29T07:48:35.585Z,47.69
2022-07-29T07:49:35.598Z,47.57
2022-07-29T07:50:35.765Z,46.77
2022-07-29T07:51:35.563Z,46.77
2022-07-29T07:52:35.553Z,46.77
2022-07-29T07:53:36.386Z,46.85
2022-07-29T07:54:36.295Z,46.05
2022-07-29T07:56:00.335Z,46.25
2022-07-29T07:56:36.523Z,46.25
2022-07-29T07:57:35.489Z,46.13
2022-07-29T07:58:35.462Z,45.63
2022-07-29T07:59:35.735Z,46.20
2022-07-29T08:00:35.454Z,44.81
2022-07-29T08:01:52.360Z,44.21
2022-07-29T08:02:36.465Z,44.79
2022-07-29T08:03:35.426Z,45.98
2022-07-29T08:04:35.402Z,45.86
2022-07-29T08:05:36.003Z,45.66
2022-07-29T08:06:35.387Z,44.65
2022-07-29T08:07:35.367Z,44.65
2022-07-29T08:08:35.364Z,44.72
2022-07-29T08:09:35.365Z,44.72
2022-07-29T08:10:35.456Z,42.43
2022-07-29T08:11:37.666Z,43.01
2022-07-29T08:12:35.397Z,43.51
2022-07-29T08:13:36.258Z,43.21
2022-07-29T08:14:36.164Z,42.91
2022-07-29T08:15:35.399Z,42.91
2022-07-29T08:16:35.573Z,41.91
2022-07-29T08:17:35.638Z,43.71
2022-07-29T08:18:35.306Z,44.31
2022-07-29T08:19:35.376Z,45.28
2022-07-29T08:20:35.367Z,44.48
2022-07-29T08:21:35.996Z,42.89
2022-07-29T08:22:35.217Z,41.77
2022-07-29T08:23:46.144Z,43.37
2022-07-29T08:24:36.178Z,44.76
2022-07-29T08:25:38.585Z,43.15
2022-07-29T08:26:35.167Z,42.45
2022-07-29T08:27:44.134Z,42.25
2022-07-29T08:28:36.163Z,41.55
2022-07-29T08:29:35.136Z,41.95
2022-07-29T08:30:35.121Z,42.23
2022-07-29T08:31:35.160Z,42.93
2022-07-29T08:33:36.090Z,41.83
2022-07-29T08:34:35.128Z,41.22
2022-07-29T08:35:36.440Z,41.71
2022-07-29T08:36:35.120Z,41.82
2022-07-29T08:37:35.035Z,42.41
2022-07-29T08:38:35.018Z,41.69
2022-07-29T08:39:35.029Z,42.39
2022-07-29T08:40:34.980Z,40.11
2022-07-29T08:41:34.987Z,40.64
2022-07-29T08:42:34.971Z,43.15
2022-07-29T08:43:35.700Z,42.15
2022-07-29T08:44:35.840Z,41.16
2022-07-29T08:45:35.059Z,41.36
2022-07-29T08:46:34.915Z,41.38
2022-07-29T08:47:34.921Z,43.07
2022-07-29T08:48:35.037Z,44.14
2022-07-29T08:49:35.591Z,43.94
2022-07-29T08:50:34.881Z,43.02
2022-07-29T08:51:35.160Z,41.52
2022-07-29T08:52:35.852Z,41.31
2022-07-29T08:53:34.851Z,41.39
2022-07-29T08:54:34.852Z,40.50
2022-07-29T08:55:34.893Z,40.50
2022-07-29T08:56:35.711Z,42.77
2022-07-29T08:57:34.833Z,40.09
2022-07-29T08:58:37.583Z,39.79
2022-07-29T08:59:35.652Z,40.36
2022-07-29T09:00:35.210Z,40.47
2022-07-29T09:01:36.335Z,39.25
2022-07-29T09:02:36.572Z,41.73
2022-07-29T09:03:34.772Z,40.12
2022-07-29T09:04:34.910Z,40.11
2022-07-29T09:05:39.482Z,39.51
2022-07-29T09:06:35.702Z,37.83
2022-07-29T09:07:34.947Z,40.12
2022-07-29T09:08:34.674Z,39.43
2022-07-29T09:09:34.704Z,39.71
2022-07-29T09:10:34.685Z,39.22
2022-07-29T09:11:34.683Z,39.69
2022-07-29T09:12:37.933Z,38.11
2022-07-29T09:13:35.353Z,37.70
2022-07-29T09:14:34.625Z,39.08
2022-07-29T09:15:34.662Z,38.96
2022-07-29T09:16:52.359Z,36.59
2022-07-29T09:17:35.652Z,36.39
2022-07-29T09:18:34.594Z,37.48
2022-07-29T09:19:34.578Z,37.48
2022-07-29T09:20:34.577Z,38.15
2022-07-29T09:21:34.593Z,37.66
2022-07-29T09:22:37.675Z,37.24
2022-07-29T09:23:35.518Z,36.65
2022-07-29T09:24:34.505Z,37.15
2022-07-29T09:25:34.567Z,36.44
2022-07-29T09:26:34.529Z,35.85
2022-07-29T09:27:35.297Z,36.71
2022-07-29T09:28:34.465Z,35.83
2022-07-29T09:29:36.322Z,35.63
2022-07-29T09:30:34.594Z,35.71
2022-07-29T09:31:34.531Z,36.11
2022-07-29T09:32:34.416Z,35.31
2022-07-29T09:33:34.458Z,36.29
2022-07-29T09:34:34.499Z,35.69
2022-07-29T09:35:35.301Z,36.29
2022-07-29T09:36:35.199Z,35.10
2022-07-29T09:37:34.428Z,35.88
2022-07-29T09:38:34.384Z,36.46
2022-07-29T09:39:34.368Z,35.36
2022-07-29T09:40:34.312Z,34.48
2022-07-29T09:41:34.336Z,34.28
2022-07-29T09:42:34.353Z,35.86
2022-07-29T09:43:34.352Z,34.58
2022-07-29T09:44:34.307Z,33.49
2022-07-29T09:45:34.355Z,35.17
2022-07-29T09:46:35.736Z,34.38
2022-07-29T09:47:34.267Z,34.08
2022-07-29T09:48:34.228Z,34.87
2022-07-29T09:49:34.980Z,33.97
2022-07-29T09:50:34.247Z,33.97
2022-07-29T09:51:38.559Z,35.44
2022-07-29T09:52:34.188Z,34.74
2022-07-29T09:53:34.212Z,33.95
2022-07-29T09:54:34.574Z,35.03
2022-07-29T09:55:34.908Z,33.07
2022-07-29T09:56:35.181Z,33.95
2022-07-29T09:57:34.978Z,32.69
2022-07-29T09:58:34.856Z,33.87
2022-07-29T09:59:35.010Z,33.89
2022-07-29T10:00:34.159Z,33.33
2022-07-29T10:01:34.848Z,34.94
2022-07-29T10:02:35.011Z,35.05
2022-07-29T10:03:34.955Z,36.39
2022-07-29T10:04:34.419Z,37.18
2022-07-29T10:05:36.789Z,37.18
2022-07-29T10:06:34.171Z,37.66
2022-07-29T10:07:34.040Z,36.47
2022-07-29T10:08:34.012Z,36.95
2022-07-29T10:09:34.013Z,35.58
2022-07-29T10:10:34.672Z,37.16
2022-07-29T10:11:48.442Z,38.15
2022-07-29T10:12:35.189Z,36.65
2022-07-29T10:13:34.690Z,36.44
2022-07-29T10:14:33.961Z,35.55
2022-07-29T10:15:34.607Z,36.34
2022-07-29T10:16:34.095Z,36.34
2022-07-29T10:17:33.957Z,35.93
2022-07-29T10:18:33.964Z,36.70
2022-07-29T10:19:33.916Z,36.00
2022-07-29T10:20:33.883Z,36.09
2022-07-29T10:21:36.456Z,37.57
2022-07-29T10:22:52.484Z,35.88
2022-07-29T10:23:46.118Z,35.68
2022-07-29T10:24:34.846Z,35.17
2022-07-29T10:25:33.956Z,34.56
2022-07-29T10:26:33.833Z,33.97
2022-07-29T10:27:33.833Z,34.66
2022-07-29T10:28:33.853Z,34.54
2022-07-29T10:29:33.794Z,33.95
2022-07-29T10:30:33.903Z,35.03
2022-07-29T10:31:33.881Z,34.34
2022-07-29T10:32:34.684Z,34.25
2022-07-29T10:33:34.594Z,34.74
2022-07-29T10:34:33.736Z,34.43
2022-07-29T10:35:33.754Z,35.41
2022-07-29T10:36:34.535Z,34.23
2022-07-29T10:38:36.674Z,33.31
2022-07-29T10:39:44.689Z,32.45
2022-07-29T10:40:35.894Z,34.23
2022-07-29T10:41:43.594Z,33.26
2022-07-29T10:42:34.847Z,34.44
2022-07-29T10:43:33.648Z,34.03
2022-07-29T10:44:34.558Z,35.02
2022-07-29T10:45:33.678Z,33.64
2022-07-29T10:46:33.655Z,34.43
2022-07-29T10:47:35.462Z,34.72
2022-07-29T10:48:33.576Z,35.99
2022-07-29T10:49:33.631Z,35.00
2022-07-29T10:50:34.176Z,34.30
2022-07-29T10:51:34.098Z,33.02
2022-07-29T10:52:33.528Z,32.62
2022-07-29T10:53:34.469Z,32.26
2022-07-29T10:54:34.366Z,33.74
2022-07-29T10:55:34.268Z,33.94
2022-07-29T10:56:33.667Z,33.64
2022-07-29T10:57:53.544Z,33.15
2022-07-29T10:58:35.265Z,33.15
2022-07-29T10:59:36.456Z,33.74
2022-07-29T11:00:34.318Z,35.51
2022-07-29T11:02:42.299Z,33.84
2022-07-29T11:03:34.682Z,32.93
2022-07-29T11:04:33.401Z,33.72
2022-07-29T11:05:40.832Z,33.70
2022-07-29T11:06:34.389Z,33.41
2022-07-29T11:07:45.780Z,33.70
2022-07-29T11:08:35.301Z,34.08
2022-07-29T11:09:37.749Z,34.47
2022-07-29T11:10:34.334Z,33.89
2022-07-29T11:11:33.343Z,32.81
2022-07-29T11:12:33.320Z,32.23
2022-07-29T11:13:35.372Z,32.54
2022-07-29T11:14:34.429Z,33.64
2022-07-29T11:15:33.454Z,34.53
2022-07-29T11:16:33.270Z,33.44
2022-07-29T11:18:36.223Z,34.61
2022-07-29T11:19:33.230Z,35.40
2022-07-29T11:20:33.266Z,37.76
2022-07-29T11:21:51.659Z,35.48
2022-07-29T11:22:34.351Z,35.27
2022-07-29T11:23:33.904Z,35.44
2022-07-29T11:24:34.999Z,35.05
2022-07-29T11:25:50.073Z,34.84
2022-07-29T11:26:34.239Z,36.10
2022-07-29T11:27:33.146Z,34.41
2022-07-29T11:28:33.201Z,34.30
2022-07-29T11:29:33.151Z,33.61
2022-07-29T11:30:34.119Z,33.79
2022-07-29T11:31:33.091Z,32.98
2022-07-29T11:32:33.102Z,32.69
2022-07-29T11:33:54.570Z,33.97
2022-07-29T11:34:34.841Z,33.28
2022-07-29T11:35:38.567Z,34.64
2022-07-29T11:36:34.068Z,31.77
2022-07-29T11:37:33.504Z,31.48
2022-07-29T11:38:34.987Z,31.99
2022-07-29T11:39:36.738Z,32.09
2022-07-29T11:40:33.024Z,32.50
2022-07-29T11:41:32.984Z,32.71
2022-07-29T11:42:34.548Z,33.79
2022-07-29T11:43:32.977Z,33.20
2022-07-29T11:44:33.163Z,32.14
2022-07-29T11:45:41.726Z,33.02
2022-07-29T11:46:34.015Z,33.03
2022-07-29T11:47:38.248Z,32.76
2022-07-29T11:48:34.837Z,32.76
2022-07-29T11:49:33.343Z,34.25
2022-07-29T11:50:32.903Z,34.44
2022-07-29T11:51:33.291Z,34.25
2022-07-29T11:52:32.881Z,34.03
2022-07-29T11:53:33.428Z,33.17
2022-07-29T11:54:32.865Z,35.13
2022-07-29T11:55:34.003Z,34.25
2022-07-29T11:56:32.846Z,33.39
2022-07-29T11:57:37.184Z,34.59
2022-07-29T11:58:32.848Z,38.34
2022-07-29T11:59:34.812Z,35.27
2022-07-29T12:00:32.807Z,34.28
2022-07-29T12:01:32.777Z,35.56
2022-07-29T12:02:37.292Z,34.28
2022-07-29T12:03:35.832Z,35.76
2022-07-29T12:04:32.816Z,37.01
2022-07-29T12:05:36.812Z,33.84
2022-07-29T12:06:32.741Z,35.69
2022-07-29T12:07:35.113Z,35.80
2022-07-29T12:08:32.707Z,34.90
2022-07-29T12:09:40.172Z,35.47
2022-07-29T12:10:33.683Z,35.16
2022-07-29T12:11:32.668Z,33.36
2022-07-29T12:12:32.667Z,33.34
2022-07-29T12:13:37.573Z,33.04
2022-07-29T12:14:33.917Z,30.98
2022-07-29T12:15:47.031Z,31.86
2022-07-29T12:16:33.686Z,31.37
2022-07-29T12:17:32.598Z,31.37
2022-07-29T12:18:32.641Z,33.72
2022-07-29T12:19:32.628Z,32.14
2022-07-29T12:20:32.640Z,31.65
2022-07-29T12:21:32.552Z,31.26
2022-07-29T12:22:32.561Z,30.98
2022-07-29T12:23:34.739Z,33.23
2022-07-29T12:24:32.549Z,31.68
2022-07-29T12:25:34.620Z,31.48
2022-07-29T12:26:32.525Z,31.32
2022-07-29T12:27:32.480Z,32.41
2022-07-29T12:28:33.490Z,32.51
2022-07-29T12:29:34.503Z,32.81
2022-07-29T12:30:32.479Z,32.53
2022-07-29T12:31:44.122Z,33.12
2022-07-29T12:32:33.480Z,33.02
2022-07-29T12:33:32.425Z,34.30
2022-07-29T12:34:32.429Z,33.61
2022-07-29T12:35:32.423Z,35.69
2022-07-29T12:36:32.412Z,34.18
2022-07-29T12:37:40.653Z,33.08
2022-07-29T12:38:33.380Z,34.06
2022-07-29T12:39:32.354Z,33.07
2022-07-29T12:40:32.383Z,33.84
2022-07-29T12:41:32.330Z,32.27
2022-07-29T12:42:32.324Z,31.68
2022-07-29T12:43:32.311Z,31.97
2022-07-29T12:44:32.310Z,32.46
2022-07-29T12:45:32.642Z,34.72
2022-07-29T12:46:32.357Z,32.45
2022-07-29T12:47:32.254Z,33.51
2022-07-29T12:48:32.263Z,31.26
2022-07-29T12:49:32.242Z,31.17
2022-07-29T12:50:33.244Z,31.76
2022-07-29T12:51:32.230Z,33.05
2022-07-29T12:52:32.227Z,33.34
2022-07-29T12:53:32.200Z,32.37
2022-07-29T12:54:32.197Z,31.61
2022-07-29T12:55:32.185Z,31.61
2022-07-29T12:56:47.574Z,32.50